Fluvius Teign — 8PLU — position and weather

sailwx.info

Track history (hours):
 
Tides and Currents Weather Stations Pressure Air Temp Water Temp Dewpoint Dewpoint Depression Visibility Wind Speed Wind Dir Waves Ship Positions

Fluvius Teign

Last reported at 2018-Feb-19 23:11 UTC. Time now 2018-Feb-20 05:52 UTC.
Position N 48°43' W 005°53'.

Length 81 m; draft 5.3 m.

Type: Cargo ship. MMSI: 314021000.

Date/timePositionNaut miles runAvg speedWind from/ knotsBaromVisibWave heightAir tempDewpointWater temp
2018-Feb-19 23:11N 48°43' W 005°53'710.4
2018-Feb-19 22:31N 48°49' W 005°48'0 9.2
2018-Feb-19 22:30N 48°49' W 005°48'7 9.4
2018-Feb-19 21:47N 48°54' W 005°41'3 9.1
2018-Feb-19 21:29N 48°56' W 005°37'10 8.4
2018-Feb-19 20:21N 49°00' W 005°24'8 7.5
2018-Feb-19 19:15N 49°04' W 005°13'2 7.1
2018-Feb-19 18:57N 49°05' W 005°10'5 7.1
2018-Feb-19 18:19N 49°08' W 005°04'73 8.9
2018-Feb-19 10:02N 49°45' W 003°28'1 7.8
2018-Feb-19 09:54N 49°45' W 003°26'3 7.5
2018-Feb-19 09:29N 49°47' W 003°22'4 7.2
2018-Feb-19 08:59N 49°49' W 003°17'4 7.0
2018-Feb-19 08:22N 49°51' W 003°11'3 7.1
2018-Feb-19 07:57N 49°53' W 003°07'3 7.0
2018-Feb-19 07:28N 49°55' W 003°03'4 7.8
2018-Feb-19 07:00N 49°57' W 002°59'4 8.0
2018-Feb-19 06:30N 49°58' W 002°53'5 8.8
2018-Feb-19 05:58N 49°59' W 002°45'5 9.8
2018-Feb-19 05:29N 50°00' W 002°38'510.7
2018-Feb-19 05:00N 50°01' W 002°31'1612.1
2018-Feb-19 03:39N 50°07' W 002°06'212.7
2018-Feb-19 03:30N 50°07' W 002°04'612.6
2018-Feb-19 03:00N 50°09' W 001°54'612.3
2018-Feb-19 02:30N 50°11' W 001°45'611.4
2018-Feb-19 02:00N 50°12' W 001°36'510.6
2018-Feb-19 01:30N 50°14' W 001°28'5 9.6
2018-Feb-19 01:00N 50°15' W 001°21'37 6.9
2018-Feb-18 19:36N 50°26' W 000°25'1 9.1
2018-Feb-18 19:30N 50°26' W 000°24'5 9.1
2018-Feb-18 19:00N 50°27' W 000°17'1 1.8
2018-Feb-18 18:30N 50°28' W 000°16'5 9.5
2018-Feb-18 18:00N 50°30' W 000°09'510.8
2018-Feb-18 17:30N 50°31' W 000°01'510.9
2018-Feb-18 17:00N 50°33' E 000°07'510.9
2018-Feb-18 16:30N 50°34' E 000°15'510.7
2018-Feb-18 16:00N 50°36' E 000°23'510.4
2018-Feb-18 15:30N 50°37' E 000°31'5 9.7
2018-Feb-18 15:00N 50°39' E 000°38'5 9.4
2018-Feb-18 14:30N 50°42' E 000°44'4 8.8
2018-Feb-18 14:00N 50°45' E 000°49'4 8.1
2018-Feb-18 13:30N 50°47' E 000°55'4 7.8
2018-Feb-18 13:00N 50°50' E 000°60'4 7.5
2018-Feb-18 12:28N 50°52' E 001°05'4 7.6
2018-Feb-18 11:52N 50°55' E 001°10'3 8.0
2018-Feb-18 11:30N 50°57' E 001°14'4 8.5
2018-Feb-18 11:00N 50°60' E 001°19'5 9.8
2018-Feb-18 10:30N 51°03' E 001°25'611.6
2018-Feb-18 10:00N 51°06' E 001°32'612.5
2018-Feb-18 09:30N 51°11' E 001°39'612.2
2018-Feb-18 09:00N 51°15' E 001°45'611.4
2018-Feb-18 08:30N 51°21' E 001°49'510.8
2018-Feb-18 08:00N 51°26' E 001°52'510.0
2018-Feb-18 07:30N 51°30' E 001°55'5 9.5
2018-Feb-18 07:00N 51°35' E 001°58'5 9.0
2018-Feb-18 06:30N 51°39' E 002°01'4 8.6
2018-Feb-18 06:00N 51°43' E 002°03'4 8.0
2018-Feb-18 05:30N 51°47' E 002°06'4 7.4
2018-Feb-18 05:01N 51°50' E 002°08'4 6.9
2018-Feb-18 04:30N 51°53' E 002°10'3 6.7
2018-Feb-18 04:00N 51°56' E 002°12'5 6.7
2018-Feb-18 03:18N 52°01' E 002°13'3 6.9
2018-Feb-18 02:56N 52°03' E 002°14'4 7.3
2018-Feb-18 02:27N 52°07' E 002°15'19 8.9
2018-Feb-18 00:19N 52°26' E 002°21'610.6
2018-Feb-17 23:44N 52°32' E 002°24'311.0
2018-Feb-17 23:27N 52°35' E 002°25'811.0
2018-Feb-17 22:41N 52°43' E 002°28'510.8
2018-Feb-17 22:12N 52°48' E 002°30'210.9
2018-Feb-17 22:00N 52°50' E 002°31'610.8
2018-Feb-17 21:29N 52°55' E 002°34'610.7
2018-Feb-17 20:57N 53°01' E 002°36'336 8.3
2018-Feb-16 04:31N 58°28' E 004°53'0 7.5
2018-Feb-16 04:30N 58°28' E 004°53'4 7.2
2018-Feb-16 03:59N 58°32' E 004°55'4 7.3
2018-Feb-16 03:29N 58°35' E 004°58'3 7.0
2018-Feb-16 03:00N 58°38' E 005°00'3 6.9
2018-Feb-16 02:30N 58°41' E 005°02'3 6.6
2018-Feb-16 02:00N 58°45' E 005°05'3 6.6
2018-Feb-16 01:30N 58°48' E 005°07'3 6.7
2018-Feb-16 01:00N 58°51' E 005°09'3 6.9
2018-Feb-16 00:30N 58°54' E 005°12'3 6.9
2018-Feb-16 00:00N 58°57' E 005°14'4 7.5
2018-Feb-15 23:30N 59°01' E 005°17'4 7.8
2018-Feb-15 23:00N 59°04' E 005°19'4 8.2
2018-Feb-15 22:30N 59°08' E 005°20'4 8.7
2018-Feb-15 22:00N 59°13' E 005°20'4 8.0
2018-Feb-15 21:30N 59°17' E 005°20'2 3.8
2018-Feb-15 20:58N 59°19' E 005°19'0 0.0
2018-Feb-15 20:28N 59°19' E 005°19'0 0.0
2018-Feb-15 19:58N 59°19' E 005°19'0 0.0
2018-Feb-15 19:28N 59°19' E 005°19'0 0.0
2018-Feb-15 18:58N 59°19' E 005°19'0 0.0
2018-Feb-15 18:28N 59°19' E 005°19'0 0.0
2018-Feb-15 17:58N 59°19' E 005°19'0 0.0
2018-Feb-15 17:28N 59°19' E 005°19'0 0.0
2018-Feb-15 16:58N 59°19' E 005°19'0 0.0
2018-Feb-15 16:28N 59°19' E 005°19'0 0.0
2018-Feb-15 15:58N 59°19' E 005°19'0 0.0
2018-Feb-15 15:28N 59°19' E 005°19'0 0.0
2018-Feb-15 14:58N 59°19' E 005°19'0 0.0
2018-Feb-15 14:28N 59°19' E 005°19'0 0.0
2018-Feb-15 13:58N 59°19' E 005°19'0 0.0
2018-Feb-15 13:28N 59°19' E 005°19'0 0.0
2018-Feb-15 12:58N 59°19' E 005°19'0 0.0
2018-Feb-15 12:28N 59°19' E 005°19'0 0.0
2018-Feb-15 11:58N 59°19' E 005°19'0 0.0
2018-Feb-15 11:28N 59°19' E 005°19'0 0.0
2018-Feb-15 10:58N 59°19' E 005°19'0 0.0
2018-Feb-15 10:28N 59°19' E 005°19'0 0.0
2018-Feb-15 09:58N 59°19' E 005°19'1 2.3
2018-Feb-15 09:31N 59°20' E 005°19'5 9.3
2018-Feb-15 09:00N 59°24' E 005°16'4 8.3
2018-Feb-15 08:30N 59°28' E 005°13'4 8.2
2018-Feb-15 08:00N 59°32' E 005°12'4 8.2
2018-Feb-15 07:30N 59°36' E 005°16'4 8.4
2018-Feb-15 07:00N 59°40' E 005°21'4 8.7
2018-Feb-15 06:30N 59°43' E 005°26'4 8.3
2018-Feb-15 06:00N 59°46' E 005°32'4 8.5
2018-Feb-15 05:30N 59°50' E 005°33'4 8.6
2018-Feb-15 05:00N 59°54' E 005°31'4 8.4
2018-Feb-15 04:30N 59°57' E 005°26'4 8.0
2018-Feb-15 04:00N 60°00' E 005°20'4 7.4
2018-Feb-15 03:31N 60°04' E 005°19'4 8.1
2018-Feb-15 03:00N 60°08' E 005°17'4 8.1
2018-Feb-15 02:30N 60°11' E 005°13'3 6.4
2018-Feb-15 02:01N 60°14' E 005°09'4 7.4
2018-Feb-15 01:31N 60°18' E 005°11'4 7.8
2018-Feb-15 01:01N 60°21' E 005°10'4 7.5
2018-Feb-15 00:31N 60°24' E 005°06'4 7.5
2018-Feb-15 00:00N 60°27' E 005°01'4 8.0
2018-Feb-14 23:31N 60°31' E 004°57'4 7.8
2018-Feb-14 23:01N 60°34' E 004°54'4 7.9
2018-Feb-14 22:30N 60°38' E 004°52'4 8.1
2018-Feb-14 22:01N 60°42' E 004°49'4 7.7
2018-Feb-14 21:29N 60°46' E 004°46'3 5.2
2018-Feb-14 21:00N 60°48' E 004°43'2 4.3
2018-Feb-14 20:30N 60°50' E 004°45'4 7.7
2018-Feb-14 20:00N 60°54' E 004°46'4 7.5
2018-Feb-14 19:29N 60°57' E 004°45'3 6.9
2018-Feb-14 19:00N 61°00' E 004°49'4 8.2
2018-Feb-14 18:30N 61°03' E 004°56'4 8.1
2018-Feb-14 18:00N 61°06' E 005°01'4 8.2
2018-Feb-14 17:30N 61°10' E 005°01'4 7.8
2018-Feb-14 17:00N 61°13' E 004°57'4 7.5
2018-Feb-14 16:29N 61°17' E 004°56'4 9.1
2018-Feb-14 16:01N 61°19' E 005°04'4 8.4
2018-Feb-14 15:30N 61°23' E 005°00'4 8.0
2018-Feb-14 15:00N 61°27' E 004°59'4 8.4
2018-Feb-14 14:30N 61°32' E 005°00'4 8.1
2018-Feb-14 14:00N 61°35' E 004°57'4 7.4
2018-Feb-14 13:30N 61°38' E 004°53'4 7.4
2018-Feb-14 13:00N 61°41' E 004°48'3 5.7
2018-Feb-14 12:30N 61°42' E 004°42'3 6.0
2018-Feb-14 12:00N 61°44' E 004°38'2 4.7
2018-Feb-14 11:30N 61°46' E 004°37'3 5.1
2018-Feb-14 11:00N 61°48' E 004°39'3 5.7
2018-Feb-14 10:30N 61°51' E 004°41'3 5.8
2018-Feb-14 10:00N 61°54' E 004°44'3 6.3
2018-Feb-14 09:30N 61°57' E 004°46'3 6.5
2018-Feb-14 09:00N 61°60' E 004°49'3 6.7
2018-Feb-14 08:30N 62°03' E 004°52'3 6.6
2018-Feb-14 08:00N 62°06' E 004°55'3 6.8
2018-Feb-14 07:30N 62°09' E 004°58'3 7.1
2018-Feb-14 07:01N 62°12' E 005°02'3 6.9
2018-Feb-14 06:30N 62°15' E 005°06'4 7.5
2018-Feb-14 06:00N 62°18' E 005°10'4 7.3
2018-Feb-14 05:30N 62°21' E 005°15'4 7.2
2018-Feb-14 05:00N 62°23' E 005°20'4 7.1
2018-Feb-14 04:30N 62°26' E 005°26'3 7.1
2018-Feb-14 04:00N 62°29' E 005°31'3 6.5
2018-Feb-14 03:30N 62°31' E 005°36'3 6.2
2018-Feb-14 03:00N 62°33' E 005°40'3 6.4
2018-Feb-14 02:31N 62°36' E 005°45'3 6.7
2018-Feb-14 02:01N 62°38' E 005°50'4 7.0
2018-Feb-14 01:31N 62°41' E 005°55'4 7.6
2018-Feb-14 01:01N 62°44' E 006°00'4 7.8
2018-Feb-14 00:31N 62°46' E 006°06'4 7.8
2018-Feb-14 00:01N 62°49' E 006°12'4 8.1
2018-Feb-13 23:30N 62°52' E 006°19'4 8.4
2018-Feb-13 23:00N 62°54' E 006°27'4 8.6
2018-Feb-13 22:30N 62°57' E 006°34'4 8.9
2018-Feb-13 22:00N 62°60' E 006°42'4 8.9
2018-Feb-13 21:30N 63°02' E 006°49'4 8.9
2018-Feb-13 21:00N 63°05' E 006°57'4 8.8
2018-Feb-13 20:30N 63°08' E 007°05'4 8.6
2018-Feb-13 20:01N 63°10' E 007°13'4 8.7
2018-Feb-13 19:31N 63°12' E 007°22'4 8.9
2018-Feb-13 19:01N 63°14' E 007°31'4 8.4
2018-Feb-13 18:31N 63°14' E 007°40'4 8.0
2018-Feb-13 18:00N 63°11' E 007°44'5 9.5
2018-Feb-13 17:31N 63°06' E 007°41'5 9.5
2018-Feb-13 17:01N 63°01' E 007°42'5 9.4
2018-Feb-13 16:30N 62°58' E 007°49'5 9.3
2018-Feb-13 16:00N 62°59' E 007°59'5 9.2
2018-Feb-13 15:30N 62°56' E 008°07'5 9.2
2018-Feb-13 15:00N 62°51' E 008°09'5 9.2
2018-Feb-13 14:30N 62°48' E 008°16'5 9.6
2018-Feb-13 14:00N 62°45' E 008°25'5 9.3
2018-Feb-13 13:31N 62°42' E 008°32'1 2.4
2018-Feb-13 13:00N 62°41' E 008°33'0 0.0
2018-Feb-13 12:30N 62°41' E 008°33'0 0.0
2018-Feb-13 12:00N 62°41' E 008°33'0 0.0
2018-Feb-13 11:30N 62°41' E 008°33'0 0.0
2018-Feb-13 11:00N 62°41' E 008°33'0 0.0
2018-Feb-13 10:27N 62°41' E 008°33'0 0.0
2018-Feb-13 10:00N 62°41' E 008°33'0 0.0
2018-Feb-13 09:27N 62°41' E 008°33'0 0.0
2018-Feb-13 09:00N 62°41' E 008°33'0 0.0
2018-Feb-13 08:30N 62°41' E 008°33'0 0.0
2018-Feb-13 08:00N 62°41' E 008°33'0 0.0
2018-Feb-13 07:30N 62°41' E 008°33'0 0.0
2018-Feb-13 07:00N 62°41' E 008°33'0 0.0
2018-Feb-13 06:30N 62°41' E 008°33'0 0.0
2018-Feb-13 06:00N 62°41' E 008°33'0 0.0
2018-Feb-13 05:30N 62°41' E 008°33'0 0.0
2018-Feb-13 05:00N 62°41' E 008°33'0 0.0
2018-Feb-13 04:30N 62°41' E 008°33'0 0.0
2018-Feb-13 04:00N 62°41' E 008°33'0 0.0
2018-Feb-13 03:29N 62°41' E 008°33'0 0.0
2018-Feb-13 02:56N 62°41' E 008°33'0 0.0
2018-Feb-13 02:29N 62°41' E 008°33'0 0.0
2018-Feb-13 01:56N 62°41' E 008°33'0 0.0
2018-Feb-13 01:29N 62°41' E 008°33'0 0.0
2018-Feb-13 00:59N 62°41' E 008°33'0 0.0
2018-Feb-13 00:29N 62°41' E 008°33'0 0.0
2018-Feb-12 23:59N 62°41' E 008°33'0 0.0
2018-Feb-12 23:29N 62°41' E 008°33'0 0.0
2018-Feb-12 22:59N 62°41' E 008°33'0 0.0
2018-Feb-12 22:29N 62°41' E 008°33'0 0.0
2018-Feb-12 21:59N 62°41' E 008°33'0 0.0
2018-Feb-12 21:29N 62°41' E 008°33'0 0.0
2018-Feb-12 20:59N 62°41' E 008°33'0 0.0
2018-Feb-12 20:23N 62°41' E 008°33'0 0.0
2018-Feb-12 19:59N 62°41' E 008°33'0 0.0
2018-Feb-12 19:29N 62°41' E 008°33'0 0.0
2018-Feb-12 18:59N 62°41' E 008°33'0 0.0
2018-Feb-12 18:29N 62°41' E 008°33'0 0.0
2018-Feb-12 17:59N 62°41' E 008°33'0 0.0
2018-Feb-12 17:29N 62°41' E 008°33'0 0.0
2018-Feb-12 16:59N 62°41' E 008°33'0 0.0
2018-Feb-12 16:29N 62°41' E 008°33'0 0.0
2018-Feb-12 15:59N 62°41' E 008°33'0 0.0
2018-Feb-12 15:14N 62°41' E 008°33'0 0.0
2018-Feb-12 14:59N 62°41' E 008°33'0 0.0
2018-Feb-12 14:26N 62°41' E 008°33'0 0.0
2018-Feb-12 13:59N 62°41' E 008°33'0 0.0
2018-Feb-12 13:20N 62°41' E 008°33'0 0.0
2018-Feb-12 12:56N 62°41' E 008°33'0 0.0
2018-Feb-12 12:29N 62°41' E 008°33'0 0.0
2018-Feb-12 11:59N 62°41' E 008°33'0 0.0
2018-Feb-12 11:29N 62°41' E 008°33'0 0.0
2018-Feb-12 10:59N 62°41' E 008°33'3 5.5
2018-Feb-12 10:30N 62°43' E 008°31'4 8.9
2018-Feb-12 10:00N 62°46' E 008°23'5 8.8
2018-Feb-12 09:30N 62°48' E 008°14'4 9.2
2018-Feb-12 09:00N 62°52' E 008°08'5 9.0
2018-Feb-12 08:29N 62°56' E 008°06'4 8.6
2018-Feb-12 08:01N 62°59' E 007°58'5 9.2
2018-Feb-12 07:31N 62°58' E 007°48'3 6.1
2018-Feb-12 06:59N 63°01' E 007°48'0 0.4
2018-Feb-12 06:29N 63°01' E 007°48'0 0.0
2018-Feb-12 05:59N 63°01' E 007°48'0 0.1
2018-Feb-12 05:29N 63°01' E 007°48'0 0.0
2018-Feb-12 04:59N 63°01' E 007°48'0 0.0
2018-Feb-12 04:29N 63°01' E 007°48'0 0.0
2018-Feb-12 03:59N 63°01' E 007°48'0 0.0
2018-Feb-12 03:29N 63°01' E 007°48'0 0.0
2018-Feb-12 02:59N 63°01' E 007°48'0 0.0
2018-Feb-12 02:29N 63°01' E 007°48'0 0.0
2018-Feb-12 01:59N 63°01' E 007°48'0 0.0
2018-Feb-12 01:29N 63°01' E 007°48'0 0.0
2018-Feb-12 00:59N 63°01' E 007°48'0 0.0
2018-Feb-12 00:29N 63°01' E 007°48'0 0.0
2018-Feb-11 23:59N 63°01' E 007°48'0 0.0
2018-Feb-11 23:29N 63°01' E 007°48'0 0.1
2018-Feb-11 22:59N 63°01' E 007°48'0 0.0
2018-Feb-11 22:29N 63°01' E 007°48'0 0.0
2018-Feb-11 21:59N 63°01' E 007°48'0 0.0
2018-Feb-11 21:29N 63°01' E 007°48'0 0.0
2018-Feb-11 20:59N 63°01' E 007°48'0 0.0
2018-Feb-11 20:29N 63°01' E 007°48'0 0.0
2018-Feb-11 19:59N 63°01' E 007°48'0 0.1
2018-Feb-11 19:29N 63°01' E 007°48'0 0.1
2018-Feb-11 18:59N 63°01' E 007°48'0 0.1
2018-Feb-11 18:29N 63°01' E 007°48'0 0.0
2018-Feb-11 17:59N 63°01' E 007°48'0 0.0
2018-Feb-11 17:29N 63°01' E 007°48'0 0.1
2018-Feb-11 16:59N 63°01' E 007°48'0 0.0
2018-Feb-11 16:29N 63°01' E 007°48'0 0.1
2018-Feb-11 15:59N 63°01' E 007°48'0 0.1
2018-Feb-11 15:29N 63°01' E 007°48'0 0.0
2018-Feb-11 14:59N 63°01' E 007°48'0 0.0
2018-Feb-11 14:29N 63°01' E 007°48'0 0.0
2018-Feb-11 13:59N 63°01' E 007°48'0 0.0
2018-Feb-11 13:29N 63°01' E 007°48'0 0.0
2018-Feb-11 12:59N 63°01' E 007°48'0 0.1
2018-Feb-11 12:29N 63°01' E 007°48'0 0.0
2018-Feb-11 11:59N 63°01' E 007°48'0 0.1
2018-Feb-11 11:29N 63°01' E 007°48'0 0.0
2018-Feb-11 10:59N 63°01' E 007°48'0 0.1
2018-Feb-11 10:29N 63°01' E 007°48'0 0.0
2018-Feb-11 09:59N 63°01' E 007°48'0 0.1
2018-Feb-11 09:29N 63°01' E 007°48'0 0.0
2018-Feb-11 08:59N 63°01' E 007°48'0 0.0
2018-Feb-11 08:29N 63°01' E 007°48'0 0.1
2018-Feb-11 07:59N 63°01' E 007°48'0 0.0
2018-Feb-11 07:29N 63°01' E 007°48'0 0.1
2018-Feb-11 06:59N 63°01' E 007°48'0 0.0
2018-Feb-11 06:29N 63°01' E 007°48'0 0.0
2018-Feb-11 05:58N 63°01' E 007°48'0 0.0
2018-Feb-11 05:28N 63°01' E 007°48'0 0.0
2018-Feb-11 04:58N 63°01' E 007°48'0 0.0
2018-Feb-11 04:28N 63°01' E 007°48'0 0.1
2018-Feb-11 03:58N 63°01' E 007°48'0 0.0
2018-Feb-11 03:28N 63°01' E 007°48'0 0.0
2018-Feb-11 02:58N 63°01' E 007°48'0 0.0
2018-Feb-11 02:28N 63°01' E 007°48'0 0.0
2018-Feb-11 01:58N 63°01' E 007°48'0 0.0
2018-Feb-11 01:28N 63°01' E 007°48'0 0.0
2018-Feb-11 00:58N 63°01' E 007°48'0 0.1
2018-Feb-11 00:28N 63°01' E 007°48'0 0.0
2018-Feb-10 23:58N 63°01' E 007°48'0 0.1
2018-Feb-10 23:28N 63°01' E 007°48'0 0.0
2018-Feb-10 22:58N 63°01' E 007°48'0 0.0
2018-Feb-10 22:28N 63°01' E 007°48'0 0.1
2018-Feb-10 21:58N 63°01' E 007°48'0 0.0
2018-Feb-10 21:28N 63°01' E 007°48'0 0.0
2018-Feb-10 20:58N 63°01' E 007°48'0 0.0
2018-Feb-10 20:28N 63°01' E 007°48'0 0.0
2018-Feb-10 19:58N 63°01' E 007°48'0 0.0
2018-Feb-10 19:28N 63°01' E 007°48'0 0.0
2018-Feb-10 18:58N 63°01' E 007°48'0 0.0
2018-Feb-10 18:28N 63°01' E 007°48'0 0.0
2018-Feb-10 17:58N 63°01' E 007°48'0 0.1
2018-Feb-10 17:28N 63°01' E 007°48'0 0.0
2018-Feb-10 16:58N 63°01' E 007°48'0 0.1
2018-Feb-10 16:28N 63°01' E 007°48'0 0.0
2018-Feb-10 15:58N 63°01' E 007°48'0 0.1
2018-Feb-10 15:28N 63°01' E 007°48'0 0.0
2018-Feb-10 14:58N 63°01' E 007°48'0 0.0
2018-Feb-10 14:28N 63°01' E 007°48'0 0.0
2018-Feb-10 13:58N 63°01' E 007°48'0 0.1
2018-Feb-10 13:28N 63°01' E 007°48'0 0.0
2018-Feb-10 12:58N 63°01' E 007°48'0 0.0
2018-Feb-10 12:28N 63°01' E 007°48'0 0.0
2018-Feb-10 11:58N 63°01' E 007°48'0 0.0
2018-Feb-10 11:28N 63°01' E 007°48'0 0.2
2018-Feb-10 10:58N 63°01' E 007°48'0 0.0
2018-Feb-10 10:28N 63°01' E 007°48'0 0.1
2018-Feb-10 09:58N 63°01' E 007°48'0 0.0
2018-Feb-10 09:28N 63°01' E 007°48'0 0.0
2018-Feb-10 08:58N 63°01' E 007°48'0 0.0
2018-Feb-10 08:28N 63°01' E 007°48'0 0.0
2018-Feb-10 07:58N 63°01' E 007°48'0 0.1
2018-Feb-10 07:28N 63°01' E 007°48'0 0.0
2018-Feb-10 06:58N 63°01' E 007°48'0 0.1
2018-Feb-10 06:28N 63°01' E 007°48'0 0.1
2018-Feb-10 05:58N 63°01' E 007°48'0 0.0
2018-Feb-10 05:28N 63°01' E 007°48'0 0.1
2018-Feb-10 04:58N 63°01' E 007°48'0 0.2
2018-Feb-10 04:28N 63°01' E 007°48'0 0.0
2018-Feb-10 03:58N 63°01' E 007°48'0 0.0
2018-Feb-10 03:28N 63°01' E 007°48'0 0.1
2018-Feb-10 02:58N 63°01' E 007°48'1 1.8
2018-Feb-10 02:30N 63°01' E 007°50'4 8.9
2018-Feb-10 02:00N 63°05' E 007°55'5 9.3
2018-Feb-10 01:30N 63°09' E 007°50'5 9.4
2018-Feb-10 01:00N 63°13' E 007°44'5 9.4
2018-Feb-10 00:30N 63°15' E 007°34'510.0
2018-Feb-10 00:00N 63°13' E 007°24'5 9.8
2018-Feb-09 23:30N 63°11' E 007°14'  
Track history (hours):
 
Tides and Currents Weather Stations Pressure Air Temp Water Temp Dewpoint Dewpoint Depression Visibility Wind Speed Wind Dir Waves Ship Positions

Fluvius Teign

Last reported at 2018-Feb-19 23:11 UTC. Time now 2018-Feb-20 05:52 UTC.
Position N 48°43' W 005°53'.

Length 81 m; draft 5.3 m.

Type: Cargo ship. MMSI: 314021000.

Date/timePositionNaut miles runAvg speedWind from/ knotsBaromVisibWave heightAir tempDewpointWater temp
2018-Feb-19 23:11N 48°43' W 005°53'710.4
2018-Feb-19 22:31N 48°49' W 005°48'0 9.2
2018-Feb-19 22:30N 48°49' W 005°48'7 9.4
2018-Feb-19 21:47N 48°54' W 005°41'3 9.1
2018-Feb-19 21:29N 48°56' W 005°37'10 8.4
2018-Feb-19 20:21N 49°00' W 005°24'8 7.5
2018-Feb-19 19:15N 49°04' W 005°13'2 7.1
2018-Feb-19 18:57N 49°05' W 005°10'5 7.1
2018-Feb-19 18:19N 49°08' W 005°04'73 8.9
2018-Feb-19 10:02N 49°45' W 003°28'1 7.8
2018-Feb-19 09:54N 49°45' W 003°26'3 7.5
2018-Feb-19 09:29N 49°47' W 003°22'4 7.2
2018-Feb-19 08:59N 49°49' W 003°17'4 7.0
2018-Feb-19 08:22N 49°51' W 003°11'3 7.1
2018-Feb-19 07:57N 49°53' W 003°07'3 7.0
2018-Feb-19 07:28N 49°55' W 003°03'4 7.8
2018-Feb-19 07:00N 49°57' W 002°59'4 8.0
2018-Feb-19 06:30N 49°58' W 002°53'5 8.8
2018-Feb-19 05:58N 49°59' W 002°45'5 9.8
2018-Feb-19 05:29N 50°00' W 002°38'510.7
2018-Feb-19 05:00N 50°01' W 002°31'1612.1
2018-Feb-19 03:39N 50°07' W 002°06'212.7
2018-Feb-19 03:30N 50°07' W 002°04'612.6
2018-Feb-19 03:00N 50°09' W 001°54'612.3
2018-Feb-19 02:30N 50°11' W 001°45'611.4
2018-Feb-19 02:00N 50°12' W 001°36'510.6
2018-Feb-19 01:30N 50°14' W 001°28'5 9.6
2018-Feb-19 01:00N 50°15' W 001°21'37 6.9
2018-Feb-18 19:36N 50°26' W 000°25'1 9.1
2018-Feb-18 19:30N 50°26' W 000°24'5 9.1
2018-Feb-18 19:00N 50°27' W 000°17'1 1.8
2018-Feb-18 18:30N 50°28' W 000°16'5 9.5
2018-Feb-18 18:00N 50°30' W 000°09'510.8
2018-Feb-18 17:30N 50°31' W 000°01'510.9
2018-Feb-18 17:00N 50°33' E 000°07'510.9
2018-Feb-18 16:30N 50°34' E 000°15'510.7
2018-Feb-18 16:00N 50°36' E 000°23'510.4
2018-Feb-18 15:30N 50°37' E 000°31'5 9.7
2018-Feb-18 15:00N 50°39' E 000°38'5 9.4
2018-Feb-18 14:30N 50°42' E 000°44'4 8.8
2018-Feb-18 14:00N 50°45' E 000°49'4 8.1
2018-Feb-18 13:30N 50°47' E 000°55'4 7.8
2018-Feb-18 13:00N 50°50' E 000°60'4 7.5
2018-Feb-18 12:28N 50°52' E 001°05'4 7.6
2018-Feb-18 11:52N 50°55' E 001°10'3 8.0
2018-Feb-18 11:30N 50°57' E 001°14'4 8.5
2018-Feb-18 11:00N 50°60' E 001°19'5 9.8
2018-Feb-18 10:30N 51°03' E 001°25'611.6
2018-Feb-18 10:00N 51°06' E 001°32'612.5
2018-Feb-18 09:30N 51°11' E 001°39'612.2
2018-Feb-18 09:00N 51°15' E 001°45'611.4
2018-Feb-18 08:30N 51°21' E 001°49'510.8
2018-Feb-18 08:00N 51°26' E 001°52'510.0
2018-Feb-18 07:30N 51°30' E 001°55'5 9.5
2018-Feb-18 07:00N 51°35' E 001°58'5 9.0
2018-Feb-18 06:30N 51°39' E 002°01'4 8.6
2018-Feb-18 06:00N 51°43' E 002°03'4 8.0
2018-Feb-18 05:30N 51°47' E 002°06'4 7.4
2018-Feb-18 05:01N 51°50' E 002°08'4 6.9
2018-Feb-18 04:30N 51°53' E 002°10'3 6.7
2018-Feb-18 04:00N 51°56' E 002°12'5 6.7
2018-Feb-18 03:18N 52°01' E 002°13'3 6.9
2018-Feb-18 02:56N 52°03' E 002°14'4 7.3
2018-Feb-18 02:27N 52°07' E 002°15'19 8.9
2018-Feb-18 00:19N 52°26' E 002°21'610.6
2018-Feb-17 23:44N 52°32' E 002°24'311.0
2018-Feb-17 23:27N 52°35' E 002°25'811.0
2018-Feb-17 22:41N 52°43' E 002°28'510.8
2018-Feb-17 22:12N 52°48' E 002°30'210.9
2018-Feb-17 22:00N 52°50' E 002°31'610.8
2018-Feb-17 21:29N 52°55' E 002°34'610.7
2018-Feb-17 20:57N 53°01' E 002°36'336 8.3
2018-Feb-16 04:31N 58°28' E 004°53'0 7.5
2018-Feb-16 04:30N 58°28' E 004°53'4 7.2
2018-Feb-16 03:59N 58°32' E 004°55'4 7.3
2018-Feb-16 03:29N 58°35' E 004°58'3 7.0
2018-Feb-16 03:00N 58°38' E 005°00'3 6.9
2018-Feb-16 02:30N 58°41' E 005°02'3 6.6
2018-Feb-16 02:00N 58°45' E 005°05'3 6.6
2018-Feb-16 01:30N 58°48' E 005°07'3 6.7
2018-Feb-16 01:00N 58°51' E 005°09'3 6.9
2018-Feb-16 00:30N 58°54' E 005°12'3 6.9
2018-Feb-16 00:00N 58°57' E 005°14'4 7.5
2018-Feb-15 23:30N 59°01' E 005°17'4 7.8
2018-Feb-15 23:00N 59°04' E 005°19'4 8.2
2018-Feb-15 22:30N 59°08' E 005°20'4 8.7
2018-Feb-15 22:00N 59°13' E 005°20'4 8.0
2018-Feb-15 21:30N 59°17' E 005°20'2 3.8
2018-Feb-15 20:58N 59°19' E 005°19'0 0.0
2018-Feb-15 20:28N 59°19' E 005°19'0 0.0
2018-Feb-15 19:58N 59°19' E 005°19'0 0.0
2018-Feb-15 19:28N 59°19' E 005°19'0 0.0
2018-Feb-15 18:58N 59°19' E 005°19'0 0.0
2018-Feb-15 18:28N 59°19' E 005°19'0 0.0
2018-Feb-15 17:58N 59°19' E 005°19'0 0.0
2018-Feb-15 17:28N 59°19' E 005°19'0 0.0
2018-Feb-15 16:58N 59°19' E 005°19'0 0.0
2018-Feb-15 16:28N 59°19' E 005°19'0 0.0
2018-Feb-15 15:58N 59°19' E 005°19'0 0.0
2018-Feb-15 15:28N 59°19' E 005°19'0 0.0
2018-Feb-15 14:58N 59°19' E 005°19'0 0.0
2018-Feb-15 14:28N 59°19' E 005°19'0 0.0
2018-Feb-15 13:58N 59°19' E 005°19'0 0.0
2018-Feb-15 13:28N 59°19' E 005°19'0 0.0
2018-Feb-15 12:58N 59°19' E 005°19'0 0.0
2018-Feb-15 12:28N 59°19' E 005°19'0 0.0
2018-Feb-15 11:58N 59°19' E 005°19'0 0.0
2018-Feb-15 11:28N 59°19' E 005°19'0 0.0
2018-Feb-15 10:58N 59°19' E 005°19'0 0.0
2018-Feb-15 10:28N 59°19' E 005°19'0 0.0
2018-Feb-15 09:58N 59°19' E 005°19'1 2.3
2018-Feb-15 09:31N 59°20' E 005°19'5 9.3
2018-Feb-15 09:00N 59°24' E 005°16'4 8.3
2018-Feb-15 08:30N 59°28' E 005°13'4 8.2
2018-Feb-15 08:00N 59°32' E 005°12'4 8.2
2018-Feb-15 07:30N 59°36' E 005°16'4 8.4
2018-Feb-15 07:00N 59°40' E 005°21'4 8.7
2018-Feb-15 06:30N 59°43' E 005°26'4 8.3
2018-Feb-15 06:00N 59°46' E 005°32'4 8.5
2018-Feb-15 05:30N 59°50' E 005°33'4 8.6
2018-Feb-15 05:00N 59°54' E 005°31'4 8.4
2018-Feb-15 04:30N 59°57' E 005°26'4 8.0
2018-Feb-15 04:00N 60°00' E 005°20'4 7.4
2018-Feb-15 03:31N 60°04' E 005°19'4 8.1
2018-Feb-15 03:00N 60°08' E 005°17'4 8.1
2018-Feb-15 02:30N 60°11' E 005°13'3 6.4
2018-Feb-15 02:01N 60°14' E 005°09'4 7.4
2018-Feb-15 01:31N 60°18' E 005°11'4 7.8
2018-Feb-15 01:01N 60°21' E 005°10'4 7.5
2018-Feb-15 00:31N 60°24' E 005°06'4 7.5
2018-Feb-15 00:00N 60°27' E 005°01'4 8.0
2018-Feb-14 23:31N 60°31' E 004°57'4 7.8
2018-Feb-14 23:01N 60°34' E 004°54'4 7.9
2018-Feb-14 22:30N 60°38' E 004°52'4 8.1
2018-Feb-14 22:01N 60°42' E 004°49'4 7.7
2018-Feb-14 21:29N 60°46' E 004°46'3 5.2
2018-Feb-14 21:00N 60°48' E 004°43'2 4.3
2018-Feb-14 20:30N 60°50' E 004°45'4 7.7
2018-Feb-14 20:00N 60°54' E 004°46'4 7.5
2018-Feb-14 19:29N 60°57' E 004°45'3 6.9
2018-Feb-14 19:00N 61°00' E 004°49'4 8.2
2018-Feb-14 18:30N 61°03' E 004°56'4 8.1
2018-Feb-14 18:00N 61°06' E 005°01'4 8.2
2018-Feb-14 17:30N 61°10' E 005°01'4 7.8
2018-Feb-14 17:00N 61°13' E 004°57'4 7.5
2018-Feb-14 16:29N 61°17' E 004°56'4 9.1
2018-Feb-14 16:01N 61°19' E 005°04'4 8.4
2018-Feb-14 15:30N 61°23' E 005°00'4 8.0
2018-Feb-14 15:00N 61°27' E 004°59'4 8.4
2018-Feb-14 14:30N 61°32' E 005°00'4 8.1
2018-Feb-14 14:00N 61°35' E 004°57'4 7.4
2018-Feb-14 13:30N 61°38' E 004°53'4 7.4
2018-Feb-14 13:00N 61°41' E 004°48'3 5.7
2018-Feb-14 12:30N 61°42' E 004°42'3 6.0
2018-Feb-14 12:00N 61°44' E 004°38'2 4.7
2018-Feb-14 11:30N 61°46' E 004°37'3 5.1
2018-Feb-14 11:00N 61°48' E 004°39'3 5.7
2018-Feb-14 10:30N 61°51' E 004°41'3 5.8
2018-Feb-14 10:00N 61°54' E 004°44'3 6.3
2018-Feb-14 09:30N 61°57' E 004°46'3 6.5
2018-Feb-14 09:00N 61°60' E 004°49'3 6.7
2018-Feb-14 08:30N 62°03' E 004°52'3 6.6
2018-Feb-14 08:00N 62°06' E 004°55'3 6.8
2018-Feb-14 07:30N 62°09' E 004°58'3 7.1
2018-Feb-14 07:01N 62°12' E 005°02'3 6.9
2018-Feb-14 06:30N 62°15' E 005°06'4 7.5
2018-Feb-14 06:00N 62°18' E 005°10'4 7.3
2018-Feb-14 05:30N 62°21' E 005°15'4 7.2
2018-Feb-14 05:00N 62°23' E 005°20'4 7.1
2018-Feb-14 04:30N 62°26' E 005°26'3 7.1
2018-Feb-14 04:00N 62°29' E 005°31'3 6.5
2018-Feb-14 03:30N 62°31' E 005°36'3 6.2
2018-Feb-14 03:00N 62°33' E 005°40'3 6.4
2018-Feb-14 02:31N 62°36' E 005°45'3 6.7
2018-Feb-14 02:01N 62°38' E 005°50'4 7.0
2018-Feb-14 01:31N 62°41' E 005°55'4 7.6
2018-Feb-14 01:01N 62°44' E 006°00'4 7.8
2018-Feb-14 00:31N 62°46' E 006°06'4 7.8
2018-Feb-14 00:01N 62°49' E 006°12'4 8.1
2018-Feb-13 23:30N 62°52' E 006°19'4 8.4
2018-Feb-13 23:00N 62°54' E 006°27'4 8.6
2018-Feb-13 22:30N 62°57' E 006°34'4 8.9
2018-Feb-13 22:00N 62°60' E 006°42'4 8.9
2018-Feb-13 21:30N 63°02' E 006°49'4 8.9
2018-Feb-13 21:00N 63°05' E 006°57'4 8.8
2018-Feb-13 20:30N 63°08' E 007°05'4 8.6
2018-Feb-13 20:01N 63°10' E 007°13'4 8.7
2018-Feb-13 19:31N 63°12' E 007°22'4 8.9
2018-Feb-13 19:01N 63°14' E 007°31'4 8.4
2018-Feb-13 18:31N 63°14' E 007°40'4 8.0
2018-Feb-13 18:00N 63°11' E 007°44'5 9.5
2018-Feb-13 17:31N 63°06' E 007°41'5 9.5
2018-Feb-13 17:01N 63°01' E 007°42'5 9.4
2018-Feb-13 16:30N 62°58' E 007°49'5 9.3
2018-Feb-13 16:00N 62°59' E 007°59'5 9.2
2018-Feb-13 15:30N 62°56' E 008°07'5 9.2
2018-Feb-13 15:00N 62°51' E 008°09'5 9.2
2018-Feb-13 14:30N 62°48' E 008°16'5 9.6
2018-Feb-13 14:00N 62°45' E 008°25'5 9.3
2018-Feb-13 13:31N 62°42' E 008°32'1 2.4
2018-Feb-13 13:00N 62°41' E 008°33'0 0.0
2018-Feb-13 12:30N 62°41' E 008°33'0 0.0
2018-Feb-13 12:00N 62°41' E 008°33'0 0.0
2018-Feb-13 11:30N 62°41' E 008°33'0 0.0
2018-Feb-13 11:00N 62°41' E 008°33'0 0.0
2018-Feb-13 10:27N 62°41' E 008°33'0 0.0
2018-Feb-13 10:00N 62°41' E 008°33'0 0.0
2018-Feb-13 09:27N 62°41' E 008°33'0 0.0
2018-Feb-13 09:00N 62°41' E 008°33'0 0.0
2018-Feb-13 08:30N 62°41' E 008°33'0 0.0
2018-Feb-13 08:00N 62°41' E 008°33'0 0.0
2018-Feb-13 07:30N 62°41' E 008°33'0 0.0
2018-Feb-13 07:00N 62°41' E 008°33'0 0.0
2018-Feb-13 06:30N 62°41' E 008°33'0 0.0
2018-Feb-13 06:00N 62°41' E 008°33'0 0.0
2018-Feb-13 05:30N 62°41' E 008°33'0 0.0
2018-Feb-13 05:00N 62°41' E 008°33'0 0.0
2018-Feb-13 04:30N 62°41' E 008°33'0 0.0
2018-Feb-13 04:00N 62°41' E 008°33'0 0.0
2018-Feb-13 03:29N 62°41' E 008°33'0 0.0
2018-Feb-13 02:56N 62°41' E 008°33'0 0.0
2018-Feb-13 02:29N 62°41' E 008°33'0 0.0
2018-Feb-13 01:56N 62°41' E 008°33'0 0.0
2018-Feb-13 01:29N 62°41' E 008°33'0 0.0
2018-Feb-13 00:59N 62°41' E 008°33'0 0.0
2018-Feb-13 00:29N 62°41' E 008°33'0 0.0
2018-Feb-12 23:59N 62°41' E 008°33'0 0.0
2018-Feb-12 23:29N 62°41' E 008°33'0 0.0
2018-Feb-12 22:59N 62°41' E 008°33'0 0.0
2018-Feb-12 22:29N 62°41' E 008°33'0 0.0
2018-Feb-12 21:59N 62°41' E 008°33'0 0.0
2018-Feb-12 21:29N 62°41' E 008°33'0 0.0
2018-Feb-12 20:59N 62°41' E 008°33'0 0.0
2018-Feb-12 20:23N 62°41' E 008°33'0 0.0
2018-Feb-12 19:59N 62°41' E 008°33'0 0.0
2018-Feb-12 19:29N 62°41' E 008°33'0 0.0
2018-Feb-12 18:59N 62°41' E 008°33'0 0.0
2018-Feb-12 18:29N 62°41' E 008°33'0 0.0
2018-Feb-12 17:59N 62°41' E 008°33'0 0.0
2018-Feb-12 17:29N 62°41' E 008°33'0 0.0
2018-Feb-12 16:59N 62°41' E 008°33'0 0.0
2018-Feb-12 16:29N 62°41' E 008°33'0 0.0
2018-Feb-12 15:59N 62°41' E 008°33'0 0.0
2018-Feb-12 15:14N 62°41' E 008°33'0 0.0
2018-Feb-12 14:59N 62°41' E 008°33'0 0.0
2018-Feb-12 14:26N 62°41' E 008°33'0 0.0
2018-Feb-12 13:59N 62°41' E 008°33'0 0.0
2018-Feb-12 13:20N 62°41' E 008°33'0 0.0
2018-Feb-12 12:56N 62°41' E 008°33'0 0.0
2018-Feb-12 12:29N 62°41' E 008°33'0 0.0
2018-Feb-12 11:59N 62°41' E 008°33'0 0.0
2018-Feb-12 11:29N 62°41' E 008°33'0 0.0
2018-Feb-12 10:59N 62°41' E 008°33'3 5.5
2018-Feb-12 10:30N 62°43' E 008°31'4 8.9
2018-Feb-12 10:00N 62°46' E 008°23'5 8.8
2018-Feb-12 09:30N 62°48' E 008°14'4 9.2
2018-Feb-12 09:00N 62°52' E 008°08'5 9.0
2018-Feb-12 08:29N 62°56' E 008°06'4 8.6
2018-Feb-12 08:01N 62°59' E 007°58'5 9.2
2018-Feb-12 07:31N 62°58' E 007°48'3 6.1
2018-Feb-12 06:59N 63°01' E 007°48'0 0.4
2018-Feb-12 06:29N 63°01' E 007°48'0 0.0
2018-Feb-12 05:59N 63°01' E 007°48'0 0.1
2018-Feb-12 05:29N 63°01' E 007°48'0 0.0
2018-Feb-12 04:59N 63°01' E 007°48'0 0.0
2018-Feb-12 04:29N 63°01' E 007°48'0 0.0
2018-Feb-12 03:59N 63°01' E 007°48'0 0.0
2018-Feb-12 03:29N 63°01' E 007°48'0 0.0
2018-Feb-12 02:59N 63°01' E 007°48'0 0.0
2018-Feb-12 02:29N 63°01' E 007°48'0 0.0
2018-Feb-12 01:59N 63°01' E 007°48'0 0.0
2018-Feb-12 01:29N 63°01' E 007°48'0 0.0
2018-Feb-12 00:59N 63°01' E 007°48'0 0.0
2018-Feb-12 00:29N 63°01' E 007°48'0 0.0
2018-Feb-11 23:59N 63°01' E 007°48'0 0.0
2018-Feb-11 23:29N 63°01' E 007°48'0 0.1
2018-Feb-11 22:59N 63°01' E 007°48'0 0.0
2018-Feb-11 22:29N 63°01' E 007°48'0 0.0
2018-Feb-11 21:59N 63°01' E 007°48'0 0.0
2018-Feb-11 21:29N 63°01' E 007°48'0 0.0
2018-Feb-11 20:59N 63°01' E 007°48'0 0.0
2018-Feb-11 20:29N 63°01' E 007°48'0 0.0
2018-Feb-11 19:59N 63°01' E 007°48'0 0.1
2018-Feb-11 19:29N 63°01' E 007°48'0 0.1
2018-Feb-11 18:59N 63°01' E 007°48'0 0.1
2018-Feb-11 18:29N 63°01' E 007°48'0 0.0
2018-Feb-11 17:59N 63°01' E 007°48'0 0.0
2018-Feb-11 17:29N 63°01' E 007°48'0 0.1
2018-Feb-11 16:59N 63°01' E 007°48'0 0.0
2018-Feb-11 16:29N 63°01' E 007°48'0 0.1
2018-Feb-11 15:59N 63°01' E 007°48'0 0.1
2018-Feb-11 15:29N 63°01' E 007°48'0 0.0
2018-Feb-11 14:59N 63°01' E 007°48'0 0.0
2018-Feb-11 14:29N 63°01' E 007°48'0 0.0
2018-Feb-11 13:59N 63°01' E 007°48'0 0.0
2018-Feb-11 13:29N 63°01' E 007°48'0 0.0
2018-Feb-11 12:59N 63°01' E 007°48'0 0.1
2018-Feb-11 12:29N 63°01' E 007°48'0 0.0
2018-Feb-11 11:59N 63°01' E 007°48'0 0.1
2018-Feb-11 11:29N 63°01' E 007°48'0 0.0
2018-Feb-11 10:59N 63°01' E 007°48'0 0.1
2018-Feb-11 10:29N 63°01' E 007°48'0 0.0
2018-Feb-11 09:59N 63°01' E 007°48'0 0.1
2018-Feb-11 09:29N 63°01' E 007°48'0 0.0
2018-Feb-11 08:59N 63°01' E 007°48'0 0.0
2018-Feb-11 08:29N 63°01' E 007°48'0 0.1
2018-Feb-11 07:59N 63°01' E 007°48'0 0.0
2018-Feb-11 07:29N 63°01' E 007°48'0 0.1
2018-Feb-11 06:59N 63°01' E 007°48'0 0.0
2018-Feb-11 06:29N 63°01' E 007°48'0 0.0
2018-Feb-11 05:58N 63°01' E 007°48'0 0.0
2018-Feb-11 05:28N 63°01' E 007°48'0 0.0
2018-Feb-11 04:58N 63°01' E 007°48'0 0.0
2018-Feb-11 04:28N 63°01' E 007°48'0 0.1
2018-Feb-11 03:58N 63°01' E 007°48'0 0.0
2018-Feb-11 03:28N 63°01' E 007°48'0 0.0
2018-Feb-11 02:58N 63°01' E 007°48'0 0.0
2018-Feb-11 02:28N 63°01' E 007°48'0 0.0
2018-Feb-11 01:58N 63°01' E 007°48'0 0.0
2018-Feb-11 01:28N 63°01' E 007°48'0 0.0
2018-Feb-11 00:58N 63°01' E 007°48'0 0.1
2018-Feb-11 00:28N 63°01' E 007°48'0 0.0
2018-Feb-10 23:58N 63°01' E 007°48'0 0.1
2018-Feb-10 23:28N 63°01' E 007°48'0 0.0
2018-Feb-10 22:58N 63°01' E 007°48'0 0.0
2018-Feb-10 22:28N 63°01' E 007°48'0 0.1
2018-Feb-10 21:58N 63°01' E 007°48'0 0.0
2018-Feb-10 21:28N 63°01' E 007°48'0 0.0
2018-Feb-10 20:58N 63°01' E 007°48'0 0.0
2018-Feb-10 20:28N 63°01' E 007°48'0 0.0
2018-Feb-10 19:58N 63°01' E 007°48'0 0.0
2018-Feb-10 19:28N 63°01' E 007°48'0 0.0
2018-Feb-10 18:58N 63°01' E 007°48'0 0.0
2018-Feb-10 18:28N 63°01' E 007°48'0 0.0
2018-Feb-10 17:58N 63°01' E 007°48'0 0.1
2018-Feb-10 17:28N 63°01' E 007°48'0 0.0
2018-Feb-10 16:58N 63°01' E 007°48'0 0.1
2018-Feb-10 16:28N 63°01' E 007°48'0 0.0
2018-Feb-10 15:58N 63°01' E 007°48'0 0.1
2018-Feb-10 15:28N 63°01' E 007°48'0 0.0
2018-Feb-10 14:58N 63°01' E 007°48'0 0.0
2018-Feb-10 14:28N 63°01' E 007°48'0 0.0
2018-Feb-10 13:58N 63°01' E 007°48'0 0.1
2018-Feb-10 13:28N 63°01' E 007°48'0 0.0
2018-Feb-10 12:58N 63°01' E 007°48'0 0.0
2018-Feb-10 12:28N 63°01' E 007°48'0 0.0
2018-Feb-10 11:58N 63°01' E 007°48'0 0.0
2018-Feb-10 11:28N 63°01' E 007°48'0 0.2
2018-Feb-10 10:58N 63°01' E 007°48'0 0.0
2018-Feb-10 10:28N 63°01' E 007°48'0 0.1
2018-Feb-10 09:58N 63°01' E 007°48'0 0.0
2018-Feb-10 09:28N 63°01' E 007°48'0 0.0
2018-Feb-10 08:58N 63°01' E 007°48'0 0.0
2018-Feb-10 08:28N 63°01' E 007°48'0 0.0
2018-Feb-10 07:58N 63°01' E 007°48'0 0.1
2018-Feb-10 07:28N 63°01' E 007°48'0 0.0
2018-Feb-10 06:58N 63°01' E 007°48'0 0.1
2018-Feb-10 06:28N 63°01' E 007°48'0 0.1
2018-Feb-10 05:58N 63°01' E 007°48'0 0.0
2018-Feb-10 05:28N 63°01' E 007°48'0 0.1
2018-Feb-10 04:58N 63°01' E 007°48'0 0.2
2018-Feb-10 04:28N 63°01' E 007°48'0 0.0
2018-Feb-10 03:58N 63°01' E 007°48'0 0.0
2018-Feb-10 03:28N 63°01' E 007°48'0 0.1
2018-Feb-10 02:58N 63°01' E 007°48'1 1.8
2018-Feb-10 02:30N 63°01' E 007°50'4 8.9
2018-Feb-10 02:00N 63°05' E 007°55'5 9.3
2018-Feb-10 01:30N 63°09' E 007°50'5 9.4
2018-Feb-10 01:00N 63°13' E 007°44'5 9.4
2018-Feb-10 00:30N 63°15' E 007°34'510.0
2018-Feb-10 00:00N 63°13' E 007°24'5 9.8
2018-Feb-09 23:30N 63°11' E 007°14'  

Dump ship's entire track history